createdAt,value
2019-03-25T00:01:24.524Z,37.53
2019-03-25T00:03:55.052Z,37.90
2019-03-25T00:06:25.501Z,38.70
2019-03-25T00:09:04.992Z,38.80
2019-03-25T00:11:28.431Z,36.13
2019-03-25T00:13:58.958Z,37.40
2019-03-25T00:16:29.482Z,39.47
2019-03-25T00:18:59.918Z,38.70
2019-03-25T00:21:30.309Z,37.63
2019-03-25T00:24:00.728Z,37.87
2019-03-25T00:26:31.237Z,38.30
2019-03-25T00:29:01.670Z,37.87
2019-03-25T00:31:32.106Z,39.63
2019-03-25T00:34:02.464Z,38.30
2019-03-25T00:36:33.055Z,39.80
2019-03-25T00:39:04.236Z,40.90
2019-03-25T00:41:34.622Z,39.23
2019-03-25T00:44:05.199Z,40.33
2019-03-25T00:46:35.619Z,40.20
2019-03-25T00:49:06.155Z,40.47
2019-03-25T00:51:36.572Z,39.87
2019-03-25T00:54:07.045Z,40.33
2019-03-25T00:56:37.505Z,38.73
2019-03-25T00:59:09.446Z,42.63
2019-03-25T01:01:39.890Z,44.27
2019-03-25T01:04:10.321Z,44.30
2019-03-25T01:06:40.728Z,40.37
2019-03-25T01:09:11.168Z,41.57
2019-03-25T01:11:49.054Z,39.93
2019-03-25T01:14:13.754Z,41.37
2019-03-25T01:16:44.236Z,40.10
2019-03-25T01:19:14.708Z,39.30
2019-03-25T01:21:45.138Z,39.37
2019-03-25T01:24:15.715Z,40.47
2019-03-25T01:26:46.193Z,40.70
2019-03-25T01:29:16.599Z,39.93
2019-03-25T01:31:47.023Z,41.50
2019-03-25T01:34:17.469Z,41.03
2019-03-25T01:36:47.931Z,40.70
2019-03-25T01:39:18.322Z,40.33
2019-03-25T01:41:48.753Z,41.50
2019-03-25T01:44:19.183Z,39.63
2019-03-25T01:46:49.636Z,41.50
2019-03-25T01:49:20.062Z,45.03
2019-03-25T01:51:50.858Z,43.67
2019-03-25T01:54:21.271Z,44.90
2019-03-25T01:56:51.668Z,43.17
2019-03-25T01:59:22.141Z,43.87
2019-03-25T02:01:52.621Z,42.30
2019-03-25T02:04:22.987Z,41.90
2019-03-25T02:06:53.367Z,42.43
2019-03-25T02:09:23.831Z,43.83
2019-03-25T02:11:54.221Z,46.43
2019-03-25T02:14:24.693Z,51.20
2019-03-25T02:16:55.157Z,54.70
2019-03-25T02:19:25.601Z,61.13
2019-03-25T02:21:56.015Z,71.40
2019-03-25T02:24:26.447Z,80.90
2019-03-25T02:26:56.872Z,99.43
2019-03-25T02:29:27.320Z,109.60
2019-03-25T02:31:57.757Z,116.53
2019-03-25T02:34:28.286Z,104.23
2019-03-25T02:36:58.765Z,74.80
2019-03-25T02:39:29.252Z,64.13
2019-03-25T02:41:59.909Z,62.67
2019-03-25T02:44:30.463Z,61.00
2019-03-25T02:47:03.172Z,61.60
2019-03-25T02:49:33.732Z,58.83
2019-03-25T02:52:04.247Z,60.40
2019-03-25T02:54:36.521Z,65.53
2019-03-25T02:57:07.023Z,67.33
2019-03-25T02:59:37.568Z,67.07
2019-03-25T03:02:07.992Z,64.57
2019-03-25T03:04:38.491Z,60.83
2019-03-25T03:07:08.973Z,65.00
2019-03-25T03:09:39.492Z,53.87
2019-03-25T03:12:10.018Z,50.87
2019-03-25T03:14:40.584Z,52.07
2019-03-25T03:17:10.983Z,50.00
2019-03-25T03:19:41.601Z,45.43
2019-03-25T03:22:12.235Z,42.50
2019-03-25T03:24:42.695Z,44.23
2019-03-25T03:27:13.127Z,44.67
2019-03-25T03:29:43.625Z,41.13
2019-03-25T03:32:14.150Z,40.60
2019-03-25T03:34:44.617Z,39.07
2019-03-25T03:37:15.070Z,40.03
2019-03-25T03:39:45.493Z,39.57
2019-03-25T03:42:15.920Z,41.30
2019-03-25T03:44:46.321Z,41.40
2019-03-25T03:47:16.765Z,39.10
2019-03-25T03:49:47.275Z,39.23
2019-03-25T03:52:17.756Z,40.03
2019-03-25T03:54:48.190Z,39.87
2019-03-25T03:57:18.614Z,39.90
2019-03-25T03:59:49.189Z,38.00
2019-03-25T04:02:19.736Z,37.70
2019-03-25T04:04:50.126Z,36.33
2019-03-25T04:07:20.685Z,37.60
2019-03-25T04:09:51.109Z,36.80
2019-03-25T04:12:21.675Z,37.07
2019-03-25T04:14:52.184Z,37.67
2019-03-25T04:17:22.493Z,38.80
2019-03-25T04:19:52.893Z,40.07
2019-03-25T04:22:23.321Z,38.43
2019-03-25T04:24:53.743Z,36.80
2019-03-25T04:27:24.247Z,39.77
2019-03-25T04:29:54.662Z,39.63
2019-03-25T04:32:25.304Z,36.70
2019-03-25T04:34:55.735Z,36.13
2019-03-25T04:37:26.162Z,36.50
2019-03-25T04:39:56.675Z,35.57
2019-03-25T04:42:27.119Z,34.70
2019-03-25T04:44:57.712Z,35.23
2019-03-25T04:47:28.108Z,34.97
2019-03-25T04:50:02.906Z,33.67
2019-03-25T04:53:00.170Z,31.33
2019-03-25T04:55:20.585Z,32.30
2019-03-25T04:57:52.765Z,32.43
2019-03-25T05:00:32.402Z,32.73
2019-03-25T05:03:05.641Z,33.80
2019-03-25T05:05:36.434Z,32.93
2019-03-25T05:08:06.972Z,34.30
2019-03-25T05:10:37.412Z,31.63
2019-03-25T05:13:07.853Z,31.80
2019-03-25T05:15:38.342Z,31.80
2019-03-25T05:18:08.837Z,32.67
2019-03-25T05:20:39.262Z,31.63
2019-03-25T05:23:09.820Z,31.20
2019-03-25T05:25:40.527Z,32.03
2019-03-25T05:28:10.973Z,30.63
2019-03-25T05:30:41.544Z,31.00
2019-03-25T05:33:12.135Z,30.30
2019-03-25T05:35:42.715Z,27.97
2019-03-25T05:38:13.244Z,25.93
2019-03-25T05:40:43.694Z,26.70
2019-03-25T05:43:14.160Z,26.00
2019-03-25T05:45:44.778Z,25.50
2019-03-25T05:48:15.366Z,24.53
2019-03-25T05:50:46.911Z,26.20
2019-03-25T05:53:18.963Z,24.57
2019-03-25T05:55:51.281Z,26.37
2019-03-25T05:58:28.533Z,26.33
2019-03-25T06:01:00.453Z,25.80
2019-03-25T06:03:30.961Z,27.43
2019-03-25T06:06:03.653Z,27.23
2019-03-25T06:08:34.391Z,28.47
2019-03-25T06:11:12.083Z,30.33
2019-03-25T06:14:01.351Z,27.53
2019-03-25T06:16:36.446Z,27.60
2019-03-25T06:19:08.575Z,27.07
2019-03-25T06:21:39.237Z,28.63
2019-03-25T06:24:09.760Z,29.73
2019-03-25T06:26:45.194Z,28.17
2019-03-25T06:29:31.998Z,27.33
2019-03-25T06:32:23.497Z,27.53
2019-03-25T06:35:18.806Z,26.63
2019-03-25T06:37:55.268Z,25.63
2019-03-25T06:40:28.842Z,25.07
2019-03-25T06:42:59.985Z,25.30
2019-03-25T06:45:31.550Z,27.03
2019-03-25T06:48:02.143Z,25.73
2019-03-25T06:50:32.734Z,27.67
2019-03-25T06:53:06.314Z,26.70
2019-03-25T06:55:54.693Z,26.23
2019-03-25T07:01:20.926Z,25.53
2019-03-25T07:03:51.733Z,26.57
2019-03-25T07:06:23.826Z,30.00
2019-03-25T07:08:55.393Z,28.93
2019-03-25T07:11:25.997Z,29.20
2019-03-25T07:13:56.679Z,29.97
2019-03-25T07:16:28.675Z,28.20
2019-03-25T07:18:59.099Z,25.80
2019-03-25T07:21:29.869Z,23.83
2019-03-25T07:24:01.827Z,24.07
2019-03-25T07:26:32.497Z,23.13
2019-03-25T07:29:02.970Z,22.40
2019-03-25T07:31:33.395Z,19.83
2019-03-25T07:34:04.145Z,16.20
2019-03-25T07:36:45.229Z,17.70
2019-03-25T07:39:15.760Z,17.70
2019-03-25T07:41:48.031Z,15.80
2019-03-25T07:44:23.555Z,15.40
2019-03-25T07:46:56.981Z,14.77
2019-03-25T07:49:27.583Z,12.97
2019-03-25T07:51:59.236Z,15.03
2019-03-25T07:54:29.777Z,15.53
2019-03-25T07:57:00.282Z,12.47
2019-03-25T07:59:33.414Z,12.30
2019-03-25T08:02:05.876Z,13.07
2019-03-25T08:04:38.778Z,13.77
2019-03-25T08:07:10.918Z,13.47
2019-03-25T08:09:44.314Z,14.60
2019-03-25T08:12:20.866Z,15.53
2019-03-25T08:14:51.560Z,13.53
2019-03-25T08:17:22.182Z,12.47
2019-03-25T08:19:52.948Z,12.10
2019-03-25T08:22:25.259Z,13.33
2019-03-25T08:25:03.217Z,12.30
2019-03-25T08:27:59.431Z,12.23
2019-03-25T08:30:29.972Z,9.50
2019-03-25T08:33:04.417Z,9.73
2019-03-25T08:35:37.492Z,9.23
2019-03-25T08:38:29.249Z,10.13
2019-03-25T08:41:01.498Z,9.97
2019-03-25T08:43:45.388Z,9.50
2019-03-25T08:46:21.601Z,9.93
2019-03-25T08:48:56.712Z,9.13
2019-03-25T08:51:29.160Z,8.80
2019-03-25T08:54:01.459Z,8.00
2019-03-25T08:56:40.590Z,8.17
2019-03-25T08:59:29.360Z,8.43
2019-03-25T09:02:22.825Z,7.60
2019-03-25T09:04:57.042Z,8.33
2019-03-25T09:07:37.340Z,8.33
2019-03-25T09:10:09.346Z,9.03
2019-03-25T09:12:44.406Z,9.50
2019-03-25T09:15:38.991Z,8.50
2019-03-25T09:18:15.033Z,8.20
2019-03-25T09:20:47.506Z,8.50
2019-03-25T09:24:07.203Z,8.47
2019-03-25T09:26:11.306Z,8.80
2019-03-25T09:28:48.118Z,8.83
2019-03-25T09:31:21.108Z,9.23
2019-03-25T09:33:51.630Z,8.73
2019-03-25T09:36:35.428Z,9.23
2019-03-25T09:39:19.166Z,7.80
2019-03-25T09:42:03.929Z,7.60
2019-03-25T09:44:54.081Z,8.13
2019-03-25T09:47:38.130Z,8.20
2019-03-25T09:50:17.033Z,8.23
2019-03-25T09:52:50.508Z,8.07
2019-03-25T09:55:27.400Z,8.20
2019-03-25T09:57:58.300Z,8.33
2019-03-25T10:00:33.797Z,9.23
2019-03-25T10:03:07.233Z,9.03
2019-03-25T10:05:39.592Z,8.97
2019-03-25T10:08:23.850Z,9.20
2019-03-25T10:10:54.063Z,8.57
2019-03-25T10:13:25.001Z,9.53
2019-03-25T10:15:55.956Z,9.53
2019-03-25T10:18:28.489Z,10.10
2019-03-25T10:21:06.076Z,8.57
2019-03-25T10:23:38.359Z,9.03
2019-03-25T10:26:11.616Z,8.83
2019-03-25T10:28:49.289Z,8.30
2019-03-25T10:31:33.639Z,8.90
2019-03-25T10:34:08.834Z,8.93
2019-03-25T10:36:58.459Z,9.30
2019-03-25T10:39:41.313Z,9.10
2019-03-25T10:42:21.229Z,7.70
2019-03-25T10:44:51.694Z,7.93
2019-03-25T10:47:22.458Z,7.40
2019-03-25T10:49:52.929Z,8.50
2019-03-25T10:52:23.381Z,8.23
2019-03-25T10:57:28.124Z,7.73
2019-03-25T11:00:01.745Z,8.00
2019-03-25T11:02:32.355Z,7.90
2019-03-25T11:05:02.808Z,7.80
2019-03-25T11:07:34.903Z,8.53
2019-03-25T11:10:08.153Z,8.20
2019-03-25T11:12:38.826Z,8.10
2019-03-25T11:15:09.928Z,7.73
2019-03-25T11:17:40.460Z,7.53
2019-03-25T11:20:10.974Z,7.77
2019-03-25T11:22:41.512Z,7.60
2019-03-25T11:25:16.534Z,7.47
2019-03-25T11:27:54.263Z,8.23
2019-03-25T11:30:22.314Z,8.00
2019-03-25T11:32:52.751Z,7.23
2019-03-25T11:35:24.319Z,7.63
2019-03-25T11:37:54.772Z,7.70
2019-03-25T11:40:25.121Z,7.23
2019-03-25T11:42:55.566Z,8.10
2019-03-25T11:45:26.093Z,7.00
2019-03-25T11:47:56.666Z,7.77
2019-03-25T11:50:27.128Z,6.57
2019-03-25T11:52:57.538Z,6.43
2019-03-25T11:55:28.017Z,7.40
2019-03-25T11:57:58.466Z,6.73
2019-03-25T12:00:28.937Z,7.30
2019-03-25T12:02:59.372Z,7.20
2019-03-25T12:05:29.959Z,7.03
2019-03-25T12:08:00.368Z,8.33
2019-03-25T12:10:30.958Z,7.23
2019-03-25T12:13:01.369Z,8.20
2019-03-25T12:15:31.873Z,7.53
2019-03-25T12:18:02.291Z,6.83
2019-03-25T12:20:32.697Z,7.53
2019-03-25T12:23:03.133Z,7.13
2019-03-25T12:25:33.558Z,6.20
2019-03-25T12:28:04.121Z,6.30
2019-03-25T12:30:34.565Z,6.47
2019-03-25T12:33:05.074Z,6.30
2019-03-25T12:35:35.519Z,6.50
2019-03-25T12:38:05.946Z,6.80
2019-03-25T12:40:36.577Z,7.27
2019-03-25T12:43:06.959Z,6.73
2019-03-25T12:45:37.461Z,7.20
2019-03-25T12:48:07.939Z,6.33
2019-03-25T12:50:38.394Z,6.77
2019-03-25T12:53:08.803Z,6.50
2019-03-25T12:55:39.210Z,6.10
2019-03-25T12:58:09.624Z,7.20
2019-03-25T13:00:43.789Z,7.87
2019-03-25T13:03:14.245Z,7.90
2019-03-25T13:05:46.558Z,8.53
2019-03-25T13:08:17.027Z,8.83
2019-03-25T13:10:47.581Z,9.80
2019-03-25T13:13:18.020Z,10.83
2019-03-25T13:15:48.866Z,9.73
2019-03-25T13:18:19.386Z,9.93
2019-03-25T13:20:49.972Z,10.07
2019-03-25T13:23:20.578Z,10.13
2019-03-25T13:25:51.158Z,10.37
2019-03-25T13:28:21.707Z,10.33
2019-03-25T13:30:52.227Z,10.40
2019-03-25T13:33:22.770Z,9.67
2019-03-25T13:35:53.388Z,10.30
2019-03-25T13:38:28.264Z,9.70
2019-03-25T13:40:58.721Z,9.90
2019-03-25T13:43:29.175Z,9.03
2019-03-25T13:46:05.605Z,8.93
2019-03-25T13:48:34.478Z,9.60
2019-03-25T13:51:04.955Z,10.50
2019-03-25T13:53:35.518Z,10.13
2019-03-25T13:56:06.460Z,12.07
2019-03-25T13:58:37.114Z,13.67
2019-03-25T14:01:09.125Z,16.83
2019-03-25T14:03:39.693Z,16.87
2019-03-25T14:06:10.193Z,17.53
2019-03-25T14:08:40.706Z,16.40
2019-03-25T14:11:12.912Z,16.60
2019-03-25T14:13:49.235Z,15.60
2019-03-25T14:16:15.543Z,14.83
2019-03-25T14:18:46.041Z,13.40
2019-03-25T14:21:16.483Z,12.97
2019-03-25T14:23:47.008Z,13.83
2019-03-25T14:26:17.484Z,13.20
2019-03-25T14:28:48.191Z,12.50
2019-03-25T14:31:18.843Z,12.33
2019-03-25T14:33:49.255Z,11.50
2019-03-25T14:36:22.476Z,12.00
2019-03-25T14:38:55.778Z,11.23
2019-03-25T14:41:27.873Z,11.80
2019-03-25T14:43:58.335Z,11.80
2019-03-25T14:46:28.809Z,11.33
2019-03-25T14:48:59.374Z,11.03
2019-03-25T14:51:30.082Z,10.67
2019-03-25T14:54:00.415Z,11.17
2019-03-25T14:56:30.897Z,11.17
2019-03-25T14:59:01.412Z,10.50
2019-03-25T15:01:32.447Z,11.20
2019-03-25T15:04:03.051Z,10.93
2019-03-25T15:06:34.205Z,10.93
2019-03-25T15:09:08.026Z,12.43
2019-03-25T15:11:40.027Z,12.30
2019-03-25T15:14:10.462Z,12.17
2019-03-25T15:16:40.936Z,12.33
2019-03-25T15:19:11.475Z,11.67
2019-03-25T15:21:41.992Z,13.77
2019-03-25T15:24:12.480Z,14.33
2019-03-25T15:26:43.009Z,15.13
2019-03-25T15:29:13.862Z,14.77
2019-03-25T15:31:44.418Z,16.43
2019-03-25T15:34:15.310Z,17.37
2019-03-25T15:36:46.997Z,17.40
2019-03-25T15:39:19.133Z,16.93
2019-03-25T15:41:50.072Z,19.40
2019-03-25T15:44:20.595Z,18.70
2019-03-25T15:46:55.617Z,18.13
2019-03-25T15:49:23.343Z,18.93
2019-03-25T15:51:53.988Z,18.80
2019-03-25T15:54:26.043Z,18.03
2019-03-25T15:56:56.538Z,18.57
2019-03-25T15:59:27.176Z,18.73
2019-03-25T16:01:57.647Z,17.60
2019-03-25T16:04:28.265Z,16.57
2019-03-25T16:07:01.235Z,17.40
2019-03-25T16:09:31.582Z,17.80
2019-03-25T16:12:02.052Z,17.30
2019-03-25T16:14:32.433Z,22.67
2019-03-25T16:17:02.876Z,21.57
2019-03-25T16:19:34.417Z,19.93
2019-03-25T16:22:05.496Z,21.13
2019-03-25T16:24:36.020Z,22.63
2019-03-25T16:27:06.478Z,24.33
2019-03-25T16:29:37.083Z,22.97
2019-03-25T16:32:07.606Z,21.43
2019-03-25T16:34:38.080Z,22.17
2019-03-25T16:37:09.021Z,20.13
2019-03-25T16:39:39.984Z,19.57
2019-03-25T16:42:10.456Z,18.47
2019-03-25T16:44:40.918Z,19.67
2019-03-25T16:47:11.416Z,19.57
2019-03-25T16:49:41.893Z,20.87
2019-03-25T16:52:14.266Z,21.63
2019-03-25T16:54:44.794Z,18.53
2019-03-25T16:57:18.935Z,20.37
2019-03-25T16:59:49.426Z,21.80
2019-03-25T17:02:19.933Z,22.07
2019-03-25T17:04:50.449Z,20.47
2019-03-25T17:07:21.096Z,17.40
2019-03-25T17:09:51.713Z,15.47
2019-03-25T17:12:22.154Z,15.07
2019-03-25T17:14:53.224Z,14.53
2019-03-25T17:17:28.569Z,14.67
2019-03-25T17:19:59.136Z,13.53
2019-03-25T17:22:31.181Z,10.70
2019-03-25T17:25:04.165Z,13.27
2019-03-25T17:27:48.877Z,15.03
2019-03-25T17:30:37.761Z,13.23
2019-03-25T17:33:08.420Z,12.23
2019-03-25T17:35:39.674Z,11.90
2019-03-25T17:38:12.190Z,10.73
2019-03-25T17:40:42.709Z,12.20
2019-03-25T17:43:13.372Z,12.40
2019-03-25T17:45:45.664Z,11.77
2019-03-25T17:48:18.735Z,9.60
2019-03-25T17:50:49.356Z,10.43
2019-03-25T17:53:20.159Z,14.63
2019-03-25T17:55:58.558Z,14.03
2019-03-25T17:58:29.427Z,8.90
2019-03-25T18:01:06.416Z,9.00
2019-03-25T18:03:37.236Z,10.17
2019-03-25T18:06:11.641Z,9.50
2019-03-25T18:08:42.540Z,9.47
2019-03-25T18:11:14.789Z,9.50
2019-03-25T18:13:46.572Z,9.10
2019-03-25T18:16:17.940Z,9.73
2019-03-25T18:18:52.991Z,10.40
2019-03-25T18:21:25.869Z,10.40
2019-03-25T18:23:56.586Z,11.50
2019-03-25T18:26:29.768Z,10.87
2019-03-25T18:29:01.436Z,10.97
2019-03-25T18:31:42.430Z,10.13
2019-03-25T18:34:04.087Z,10.57
2019-03-25T18:36:34.631Z,10.30
2019-03-25T18:39:07.637Z,9.80
2019-03-25T18:41:39.038Z,8.80
2019-03-25T18:44:26.029Z,9.80
2019-03-25T18:46:59.094Z,10.10
2019-03-25T18:49:32.621Z,10.47
2019-03-25T18:52:03.285Z,9.83
2019-03-25T18:54:35.833Z,9.30
2019-03-25T18:57:16.957Z,9.10
2019-03-25T19:00:00.317Z,20.53
2019-03-25T19:02:32.887Z,9.10
2019-03-25T19:05:05.982Z,9.40
2019-03-25T19:07:36.560Z,8.53
2019-03-25T19:10:10.452Z,9.60
2019-03-25T19:12:42.615Z,11.57
2019-03-25T19:15:13.114Z,12.97
2019-03-25T19:17:46.624Z,13.03
2019-03-25T19:20:17.165Z,14.43
2019-03-25T19:22:48.026Z,14.23
2019-03-25T19:25:18.570Z,14.23
2019-03-25T19:27:49.079Z,14.90
2019-03-25T19:30:19.520Z,14.33
2019-03-25T19:32:50.004Z,18.67
2019-03-25T19:35:21.534Z,20.13
2019-03-25T19:37:52.206Z,20.57
2019-03-25T19:40:22.764Z,20.60
2019-03-25T19:42:53.304Z,20.93
2019-03-25T19:45:23.842Z,19.00
2019-03-25T19:47:54.379Z,17.87
2019-03-25T19:50:24.877Z,16.33
2019-03-25T19:52:55.323Z,15.93
2019-03-25T19:55:25.790Z,14.70
2019-03-25T19:57:57.596Z,14.73
2019-03-25T20:00:39.856Z,13.50
2019-03-25T20:03:13.439Z,14.10
2019-03-25T20:05:43.951Z,14.40
2019-03-25T20:08:16.607Z,14.20
2019-03-25T20:10:47.052Z,14.40
2019-03-25T20:13:17.431Z,15.43
2019-03-25T20:15:48.353Z,13.90
2019-03-25T20:18:18.966Z,14.53
2019-03-25T20:20:49.422Z,14.97
2019-03-25T20:23:20.491Z,15.40
2019-03-25T20:25:51.124Z,15.87
2019-03-25T20:28:21.713Z,15.73
2019-03-25T20:30:52.255Z,17.57
2019-03-25T20:33:23.559Z,16.43
2019-03-25T20:35:54.079Z,17.80
2019-03-25T20:38:24.709Z,18.20
2019-03-25T20:40:55.293Z,20.23
2019-03-25T20:43:25.896Z,20.43
2019-03-25T20:45:56.556Z,19.50
2019-03-25T20:48:27.145Z,19.17
2019-03-25T20:50:57.628Z,18.60
2019-03-25T20:53:28.158Z,18.40
2019-03-25T20:55:58.648Z,18.23
2019-03-25T20:58:29.178Z,16.70
2019-03-25T21:00:59.990Z,14.40
2019-03-25T21:03:30.485Z,14.00
2019-03-25T21:06:00.915Z,12.20
2019-03-25T21:08:31.494Z,11.37
2019-03-25T21:11:01.952Z,12.00
2019-03-25T21:13:35.023Z,11.87
2019-03-25T21:16:07.473Z,11.63
2019-03-25T21:18:42.753Z,15.30
2019-03-25T21:21:18.874Z,10.13
2019-03-25T21:23:49.796Z,9.83
2019-03-25T21:26:29.916Z,9.70
2019-03-25T21:29:03.016Z,9.40
2019-03-25T21:31:39.247Z,9.03
2019-03-25T21:34:11.628Z,8.43
2019-03-25T21:36:44.608Z,8.50
2019-03-25T21:39:18.052Z,7.40
2019-03-25T21:41:48.665Z,8.33
2019-03-25T21:44:19.162Z,8.40
2019-03-25T21:46:49.919Z,8.40
2019-03-25T21:49:20.377Z,8.10
2019-03-25T21:51:52.853Z,7.77
2019-03-25T21:54:28.535Z,8.00
2019-03-25T21:56:59.843Z,8.37
2019-03-25T21:59:30.414Z,7.33
2019-03-25T22:02:01.139Z,7.27
2019-03-25T22:04:31.670Z,8.57
2019-03-25T22:07:02.193Z,8.47
2019-03-25T22:09:32.716Z,8.67
2019-03-25T22:12:03.312Z,8.23
2019-03-25T22:14:33.887Z,7.23
2019-03-25T22:17:04.339Z,8.00
2019-03-25T22:19:34.748Z,7.47
2019-03-25T22:22:05.281Z,7.30
2019-03-25T22:24:36.045Z,7.57
2019-03-25T22:27:07.526Z,7.83
2019-03-25T22:29:37.971Z,7.40
2019-03-25T22:32:08.581Z,7.53
2019-03-25T22:34:39.000Z,8.00
2019-03-25T22:37:09.482Z,9.17
2019-03-25T22:39:39.983Z,8.57
2019-03-25T22:42:10.414Z,9.43
2019-03-25T22:44:40.925Z,8.57
2019-03-25T22:47:11.342Z,9.43
2019-03-25T22:49:41.718Z,8.37
2019-03-25T22:52:12.167Z,8.70
2019-03-25T22:54:42.687Z,8.40
2019-03-25T22:57:13.088Z,7.87
2019-03-25T22:59:43.498Z,8.20
2019-03-25T23:02:13.975Z,8.00
2019-03-25T23:04:45.295Z,7.33
2019-03-25T23:07:22.247Z,6.97
2019-03-25T23:10:04.292Z,7.03
2019-03-25T23:12:49.792Z,7.30
2019-03-25T23:15:20.263Z,8.10
2019-03-25T23:17:50.748Z,7.70
2019-03-25T23:20:21.173Z,7.60
2019-03-25T23:22:51.640Z,7.03
2019-03-25T23:25:22.184Z,7.40
2019-03-25T23:27:52.802Z,6.67
2019-03-25T23:30:23.224Z,7.17
2019-03-25T23:32:53.793Z,6.60
2019-03-25T23:35:24.052Z,7.00
2019-03-25T23:37:54.490Z,7.53
2019-03-25T23:40:24.981Z,8.17
2019-03-25T23:42:55.522Z,9.97
2019-03-25T23:46:20.033Z,8.67
2019-03-25T23:48:50.490Z,7.20
2019-03-25T23:51:21.071Z,7.53
2019-03-25T23:53:53.132Z,6.63
2019-03-25T23:56:23.563Z,6.60
2019-03-25T23:58:54.012Z,6.00
